createdAt,value
2018-03-28T00:02:17.120Z,7.70
2018-03-28T00:04:45.412Z,7.70
2018-03-28T00:07:12.952Z,7.70
2018-03-28T00:09:41.231Z,7.60
2018-03-28T00:12:08.751Z,7.60
2018-03-28T00:14:36.273Z,7.70
2018-03-28T00:17:03.791Z,7.70
2018-03-28T00:19:31.308Z,7.60
2018-03-28T00:21:58.828Z,7.70
2018-03-28T00:24:26.370Z,7.60
2018-03-28T00:26:53.936Z,7.60
2018-03-28T00:29:21.456Z,7.60
2018-03-28T00:31:48.977Z,7.70
2018-03-28T00:34:17.271Z,7.60
2018-03-28T00:36:44.792Z,7.60
2018-03-28T00:39:12.336Z,7.70
2018-03-28T00:41:39.861Z,7.70
2018-03-28T00:44:07.377Z,7.70
2018-03-28T00:46:34.894Z,7.70
2018-03-28T00:49:02.426Z,7.70
2018-03-28T00:51:36.799Z,7.70
2018-03-28T00:54:05.261Z,7.70
2018-03-28T00:56:32.806Z,7.70
2018-03-28T00:59:00.352Z,7.70
2018-03-28T01:01:28.662Z,7.70
2018-03-28T01:03:56.183Z,7.70
2018-03-28T01:06:24.471Z,7.70
2018-03-28T01:08:51.985Z,7.70
2018-03-28T01:11:19.559Z,7.70
2018-03-28T01:13:47.083Z,7.70
2018-03-28T01:16:14.605Z,7.70
2018-03-28T01:18:42.128Z,7.70
2018-03-28T01:21:09.652Z,7.70
2018-03-28T01:23:37.173Z,7.70
2018-03-28T01:26:04.714Z,7.70
2018-03-28T01:28:32.239Z,7.70
2018-03-28T01:30:59.772Z,7.70
2018-03-28T01:33:27.342Z,7.60
2018-03-28T01:35:54.888Z,7.70
2018-03-28T01:38:22.422Z,7.70
2018-03-28T01:40:49.944Z,7.70
2018-03-28T01:43:17.467Z,7.70
2018-03-28T01:45:45.751Z,7.70
2018-03-28T01:48:14.047Z,7.70
2018-03-28T01:50:41.565Z,7.70
2018-03-28T01:53:09.855Z,7.70
2018-03-28T01:55:37.375Z,7.70
2018-03-28T01:58:04.908Z,7.70
2018-03-28T02:00:32.427Z,7.80
2018-03-28T02:03:00.728Z,7.70
2018-03-28T02:05:28.310Z,7.70
2018-03-28T02:07:55.827Z,7.70
2018-03-28T02:10:23.355Z,7.70
2018-03-28T02:12:50.871Z,7.70
2018-03-28T02:15:18.391Z,7.70
2018-03-28T02:17:45.927Z,7.70
2018-03-28T02:20:13.452Z,7.70
2018-03-28T02:22:40.963Z,7.70
2018-03-28T02:25:08.485Z,7.70
2018-03-28T02:27:36.908Z,7.70
2018-03-28T02:30:04.422Z,7.70
2018-03-28T02:32:31.940Z,7.70
2018-03-28T02:34:59.478Z,7.70
2018-03-28T02:37:27.037Z,7.70
2018-03-28T02:39:54.576Z,7.70
2018-03-28T02:42:22.095Z,7.70
2018-03-28T02:44:50.410Z,7.70
2018-03-28T02:47:17.961Z,7.70
2018-03-28T02:49:45.479Z,7.70
2018-03-28T02:52:13.007Z,7.70
2018-03-28T02:54:40.922Z,7.70
2018-03-28T02:57:08.466Z,7.70
2018-03-28T02:59:35.995Z,7.70
2018-03-28T03:02:03.504Z,7.70
2018-03-28T03:04:31.031Z,7.70
2018-03-28T03:06:58.612Z,7.70
2018-03-28T03:09:26.171Z,7.70
2018-03-28T03:11:53.698Z,7.70
2018-03-28T03:14:21.221Z,7.70
2018-03-28T03:16:48.738Z,7.70
2018-03-28T03:19:16.275Z,7.70
2018-03-28T03:21:43.794Z,7.70
2018-03-28T03:24:11.312Z,7.70
2018-03-28T03:26:38.843Z,7.70
2018-03-28T03:29:06.411Z,7.70
2018-03-28T03:31:33.948Z,7.70
2018-03-28T03:34:01.485Z,7.70
2018-03-28T03:36:29.905Z,7.70
2018-03-28T03:38:57.439Z,7.70
2018-03-28T03:41:25.740Z,7.70
2018-03-28T03:43:53.267Z,7.70
2018-03-28T03:46:21.546Z,7.80
2018-03-28T03:48:49.081Z,7.70
2018-03-28T03:51:16.658Z,7.70
2018-03-28T03:53:44.125Z,7.70
2018-03-28T03:56:11.650Z,7.80
2018-03-28T03:58:39.189Z,7.80
2018-03-28T04:01:06.785Z,7.80
2018-03-28T04:03:34.320Z,7.80
2018-03-28T04:06:01.846Z,7.80
2018-03-28T04:08:29.372Z,7.80
2018-03-28T04:10:56.895Z,7.80
2018-03-28T04:13:24.422Z,7.80
2018-03-28T04:15:52.722Z,7.80
2018-03-28T04:18:20.244Z,7.80
2018-03-28T04:20:47.852Z,7.80
2018-03-28T04:23:15.357Z,7.80
2018-03-28T04:25:42.882Z,7.80
2018-03-28T04:28:10.395Z,7.80
2018-03-28T04:30:38.680Z,7.90
2018-03-28T04:33:06.995Z,7.80
2018-03-28T04:35:34.515Z,7.90
2018-03-28T04:38:02.805Z,7.90
2018-03-28T04:40:30.332Z,7.80
2018-03-28T04:42:57.853Z,7.90
2018-03-28T04:45:25.372Z,7.90
2018-03-28T04:47:52.906Z,7.90
2018-03-28T04:50:20.433Z,7.90
2018-03-28T04:52:47.943Z,7.90
2018-03-28T04:55:16.247Z,7.80
2018-03-28T04:57:43.784Z,7.80
2018-03-28T05:00:12.063Z,7.80
2018-03-28T05:02:40.343Z,7.80
2018-03-28T05:05:08.628Z,7.80
2018-03-28T05:07:36.950Z,7.80
2018-03-28T05:10:04.504Z,7.70
2018-03-28T05:12:33.156Z,7.70
2018-03-28T05:15:01.931Z,7.80
2018-03-28T05:17:29.471Z,7.70
2018-03-28T05:19:57.023Z,7.70
2018-03-28T05:22:24.546Z,7.70
2018-03-28T05:24:52.075Z,7.70
2018-03-28T05:27:19.618Z,7.60
2018-03-28T05:29:47.140Z,7.60
2018-03-28T05:32:14.655Z,7.60
2018-03-28T05:34:42.949Z,7.50
2018-03-28T05:37:10.462Z,7.50
2018-03-28T05:39:38.076Z,7.50
2018-03-28T05:42:05.595Z,7.50
2018-03-28T05:44:33.122Z,7.50
2018-03-28T05:47:00.639Z,7.50
2018-03-28T05:49:28.949Z,7.50
2018-03-28T05:51:56.512Z,7.50
2018-03-28T05:54:24.036Z,7.60
2018-03-28T05:56:51.576Z,7.60
2018-03-28T05:59:19.104Z,7.60
2018-03-28T06:01:46.623Z,7.60
2018-03-28T06:04:14.149Z,7.60
2018-03-28T06:06:41.681Z,7.50
2018-03-28T06:09:09.469Z,7.60
2018-03-28T06:11:36.985Z,7.60
2018-03-28T06:14:04.528Z,7.60
2018-03-28T06:16:32.811Z,7.60
2018-03-28T06:19:00.923Z,7.60
2018-03-28T06:21:28.473Z,7.60
2018-03-28T06:23:55.992Z,7.60
2018-03-28T06:26:23.520Z,7.60
2018-03-28T06:28:51.057Z,7.70
2018-03-28T06:31:18.621Z,7.70
2018-03-28T06:33:46.176Z,7.70
2018-03-28T06:36:13.733Z,7.70
2018-03-28T06:38:41.241Z,7.70
2018-03-28T06:41:08.757Z,7.70
2018-03-28T06:43:36.281Z,7.80
2018-03-28T06:46:03.827Z,7.80
2018-03-28T06:48:31.747Z,7.90
2018-03-28T06:50:59.859Z,7.90
2018-03-28T06:53:27.424Z,7.90
2018-03-28T06:55:54.952Z,7.90
2018-03-28T06:58:22.511Z,8.00
2018-03-28T07:00:50.025Z,8.00
2018-03-28T07:03:17.552Z,8.00
2018-03-28T07:05:45.186Z,8.00
2018-03-28T07:08:12.704Z,8.10
2018-03-28T07:10:40.248Z,8.10
2018-03-28T07:13:07.780Z,8.10
2018-03-28T07:15:35.351Z,8.10
2018-03-28T07:18:02.872Z,8.20
2018-03-28T07:20:30.414Z,8.20
2018-03-28T07:22:57.926Z,8.20
2018-03-28T07:25:25.488Z,8.10
2018-03-28T07:27:53.023Z,8.20
2018-03-28T07:30:20.548Z,8.20
2018-03-28T07:32:48.079Z,8.30
2018-03-28T07:35:15.606Z,8.30
2018-03-28T07:37:43.127Z,8.30
2018-03-28T07:40:10.669Z,8.30
2018-03-28T07:42:38.203Z,8.30
2018-03-28T07:45:05.756Z,8.30
2018-03-28T07:47:33.282Z,8.30
2018-03-28T07:50:00.802Z,8.30
2018-03-28T07:52:28.360Z,8.20
2018-03-28T07:54:55.893Z,8.20
2018-03-28T07:57:24.033Z,8.30
2018-03-28T07:59:51.556Z,8.40
2018-03-28T08:02:19.069Z,8.40
2018-03-28T08:04:46.636Z,8.40
2018-03-28T08:07:14.145Z,8.40
2018-03-28T08:09:41.661Z,8.40
2018-03-28T08:12:09.195Z,8.40
2018-03-28T08:14:36.729Z,8.40
2018-03-28T08:17:04.255Z,8.40
2018-03-28T08:19:32.320Z,8.50
2018-03-28T08:21:59.845Z,8.50
2018-03-28T08:24:27.380Z,8.60
2018-03-28T08:26:54.896Z,8.50
2018-03-28T08:29:22.423Z,8.50
2018-03-28T08:31:50.709Z,8.60
2018-03-28T08:34:18.230Z,8.50
2018-03-28T08:36:45.755Z,8.60
2018-03-28T08:39:13.286Z,8.60
2018-03-28T08:41:40.819Z,8.60
2018-03-28T08:44:08.386Z,8.50
2018-03-28T08:46:35.893Z,8.60
2018-03-28T08:49:03.416Z,8.50
2018-03-28T08:51:30.933Z,8.50
2018-03-28T08:53:58.451Z,8.50
2018-03-28T08:56:25.970Z,8.50
2018-03-28T08:58:53.520Z,8.50
2018-03-28T09:01:21.029Z,8.50
2018-03-28T09:03:48.565Z,8.60
2018-03-28T09:06:16.208Z,8.50
2018-03-28T09:08:43.731Z,8.60
2018-03-28T09:11:11.247Z,8.60
2018-03-28T09:13:38.771Z,8.60
2018-03-28T09:16:06.304Z,8.60
2018-03-28T09:18:34.602Z,8.70
2018-03-28T09:21:02.119Z,8.70
2018-03-28T09:23:30.407Z,8.90
2018-03-28T09:25:57.936Z,8.80
2018-03-28T09:28:25.514Z,8.80
2018-03-28T09:30:53.063Z,8.80
2018-03-28T09:33:20.591Z,8.70
2018-03-28T09:35:48.102Z,8.80
2018-03-28T09:38:16.391Z,8.80
2018-03-28T09:40:44.272Z,8.80
2018-03-28T09:43:11.783Z,8.80
2018-03-28T09:45:39.309Z,8.80
2018-03-28T09:48:06.840Z,8.80
2018-03-28T09:50:35.190Z,8.80
2018-03-28T09:53:02.714Z,8.80
2018-03-28T09:55:30.237Z,8.90
2018-03-28T09:57:58.615Z,8.70
2018-03-28T10:00:26.890Z,8.80
2018-03-28T10:03:00.006Z,8.70
2018-03-28T10:05:33.096Z,8.70
2018-03-28T10:08:00.688Z,8.70
2018-03-28T10:10:28.232Z,8.70
2018-03-28T10:12:55.751Z,8.70
2018-03-28T10:15:23.328Z,8.70
2018-03-28T10:17:51.623Z,8.80
2018-03-28T10:20:19.154Z,8.80
2018-03-28T10:22:46.671Z,8.80
2018-03-28T10:25:14.276Z,8.80
2018-03-28T10:27:41.822Z,8.80
2018-03-28T10:30:09.341Z,8.80
2018-03-28T10:32:36.869Z,8.80
2018-03-28T10:35:05.204Z,8.80
2018-03-28T10:37:32.676Z,8.80
2018-03-28T10:40:00.220Z,8.80
2018-03-28T10:42:27.751Z,8.70
2018-03-28T10:44:55.268Z,8.60
2018-03-28T10:47:22.911Z,8.60
2018-03-28T10:49:50.434Z,8.60
2018-03-28T10:52:17.960Z,8.60
2018-03-28T10:54:45.491Z,8.60
2018-03-28T10:57:13.012Z,8.70
2018-03-28T10:59:40.519Z,8.70
2018-03-28T11:02:08.052Z,8.70
2018-03-28T11:04:35.650Z,8.70
2018-03-28T11:07:03.131Z,8.60
2018-03-28T11:09:31.417Z,8.60
2018-03-28T11:11:58.947Z,8.50
2018-03-28T11:14:26.480Z,8.50
2018-03-28T11:16:54.000Z,8.40
2018-03-28T11:19:21.527Z,8.40
2018-03-28T11:21:49.081Z,8.50
2018-03-28T11:24:16.660Z,8.40
2018-03-28T11:26:44.982Z,8.40
2018-03-28T11:29:12.500Z,8.40
2018-03-28T11:31:40.799Z,8.40
2018-03-28T11:34:09.192Z,8.50
2018-03-28T11:36:36.723Z,8.50
2018-03-28T11:39:06.066Z,8.40
2018-03-28T11:41:33.584Z,8.40
2018-03-28T11:44:01.112Z,8.40
2018-03-28T11:46:28.646Z,8.40
2018-03-28T11:48:56.199Z,8.40
2018-03-28T11:51:23.715Z,8.40
2018-03-28T11:53:51.246Z,8.40
2018-03-28T11:56:18.778Z,8.40
2018-03-28T11:58:46.295Z,8.30
2018-03-28T12:01:14.574Z,8.20
2018-03-28T12:03:42.855Z,8.30
2018-03-28T12:06:10.373Z,8.20
2018-03-28T12:08:37.893Z,8.10
2018-03-28T12:11:05.423Z,8.20
2018-03-28T12:13:32.942Z,8.20
2018-03-28T12:16:00.481Z,8.20
2018-03-28T12:18:27.996Z,8.00
2018-03-28T12:20:55.515Z,8.00
2018-03-28T12:23:26.839Z,7.90
2018-03-28T12:25:54.348Z,7.90
2018-03-28T12:28:27.775Z,7.80
2018-03-28T12:30:55.307Z,7.80
2018-03-28T12:33:22.874Z,7.80
2018-03-28T12:35:50.384Z,7.80
2018-03-28T12:38:17.900Z,7.70
2018-03-28T12:40:45.412Z,7.70
2018-03-28T12:43:12.935Z,7.70
2018-03-28T12:45:40.479Z,7.60
2018-03-28T12:48:07.994Z,7.70
2018-03-28T12:50:35.718Z,7.60
2018-03-28T12:53:03.065Z,7.70
2018-03-28T12:55:30.593Z,7.60
2018-03-28T12:57:58.134Z,7.60
2018-03-28T13:00:26.449Z,7.70
2018-03-28T13:02:53.959Z,7.70
2018-03-28T13:05:21.492Z,7.70
2018-03-28T13:07:49.036Z,7.70
2018-03-28T13:10:16.553Z,7.90
2018-03-28T13:12:44.064Z,8.00
2018-03-28T13:15:11.594Z,8.10
2018-03-28T13:17:39.115Z,8.10
2018-03-28T13:20:06.644Z,8.10
2018-03-28T13:22:34.174Z,8.10
2018-03-28T13:25:01.686Z,8.20
2018-03-28T13:27:29.960Z,8.20
2018-03-28T13:29:57.489Z,8.20
2018-03-28T13:32:25.063Z,8.10
2018-03-28T13:34:52.589Z,8.10
2018-03-28T13:37:20.112Z,8.00
2018-03-28T13:39:47.658Z,8.00
2018-03-28T13:42:16.022Z,8.10
2018-03-28T13:44:43.549Z,8.10
2018-03-28T13:47:11.076Z,8.10
2018-03-28T13:49:38.592Z,8.10
2018-03-28T13:52:06.114Z,8.00
2018-03-28T13:54:33.915Z,8.10
2018-03-28T13:57:01.417Z,8.10
2018-03-28T13:59:29.687Z,8.10
2018-03-28T14:01:57.211Z,8.00
2018-03-28T14:04:24.738Z,8.10
2018-03-28T14:06:52.243Z,8.10
2018-03-28T14:09:19.839Z,8.00
2018-03-28T14:11:47.360Z,8.00
2018-03-28T14:14:14.883Z,8.00
2018-03-28T14:16:42.444Z,8.00
2018-03-28T14:19:09.999Z,8.10
2018-03-28T14:21:37.527Z,8.20
2018-03-28T14:24:05.826Z,8.00
2018-03-28T14:26:33.405Z,7.90
2018-03-28T14:29:01.689Z,8.10
2018-03-28T14:31:29.211Z,8.10
2018-03-28T14:33:57.491Z,8.10
2018-03-28T14:36:25.043Z,8.10
2018-03-28T14:38:52.552Z,8.10
2018-03-28T14:41:20.070Z,8.00
2018-03-28T14:43:47.591Z,8.10
2018-03-28T14:46:15.113Z,8.00
2018-03-28T14:48:42.623Z,8.00
2018-03-28T14:51:10.135Z,7.90
2018-03-28T14:53:37.649Z,8.00
2018-03-28T14:56:05.177Z,8.00
2018-03-28T14:58:32.702Z,8.00
2018-03-28T15:01:00.205Z,8.00
2018-03-28T15:03:27.851Z,8.10
2018-03-28T15:05:55.374Z,8.10
2018-03-28T15:08:22.940Z,8.10
2018-03-28T15:10:51.211Z,8.10
2018-03-28T15:13:18.995Z,8.10
2018-03-28T15:15:46.504Z,8.10
2018-03-28T15:18:14.039Z,8.00
2018-03-28T15:20:41.666Z,8.00
2018-03-28T15:23:09.589Z,8.00
2018-03-28T15:25:37.130Z,8.00
2018-03-28T15:28:04.652Z,8.00
2018-03-28T15:30:32.191Z,8.10
2018-03-28T15:32:59.714Z,8.10
2018-03-28T15:35:27.219Z,8.20
2018-03-28T15:37:54.732Z,8.20
2018-03-28T15:40:22.251Z,8.20
2018-03-28T15:42:49.772Z,8.30
2018-03-28T15:45:17.287Z,8.30
2018-03-28T15:47:45.663Z,8.30
2018-03-28T15:50:13.931Z,8.30
2018-03-28T15:52:42.209Z,8.20
2018-03-28T15:55:09.762Z,8.20
2018-03-28T15:57:37.287Z,8.30
2018-03-28T16:00:04.818Z,8.30
2018-03-28T16:02:32.327Z,8.30
2018-03-28T16:05:00.452Z,8.40
2018-03-28T16:07:27.955Z,8.40
2018-03-28T16:09:55.474Z,8.30
2018-03-28T16:12:23.002Z,8.30
2018-03-28T16:14:51.288Z,8.30
2018-03-28T16:17:18.803Z,8.30
2018-03-28T16:19:46.359Z,8.40
2018-03-28T16:22:13.881Z,8.30
2018-03-28T16:24:41.399Z,8.30
2018-03-28T16:27:08.913Z,8.30
2018-03-28T16:29:36.435Z,8.30
2018-03-28T16:32:04.748Z,8.30
2018-03-28T16:34:46.715Z,8.30
2018-03-28T16:37:15.013Z,8.20
2018-03-28T16:39:42.536Z,8.20
2018-03-28T16:42:10.192Z,8.20
2018-03-28T16:44:37.735Z,8.10
2018-03-28T16:47:05.731Z,8.10
2018-03-28T16:49:33.247Z,8.00
2018-03-28T16:52:01.448Z,8.00
2018-03-28T16:54:29.001Z,7.90
2018-03-28T16:56:56.784Z,7.90
2018-03-28T16:59:24.305Z,7.80
2018-03-28T17:01:51.917Z,7.70
2018-03-28T17:04:19.438Z,7.60
2018-03-28T17:06:46.961Z,7.60
2018-03-28T17:09:14.472Z,7.50
2018-03-28T17:11:42.035Z,7.40
2018-03-28T17:14:09.551Z,7.30
2018-03-28T17:16:37.148Z,7.10
2018-03-28T17:19:04.649Z,7.00
2018-03-28T17:21:32.175Z,7.10
2018-03-28T17:23:59.699Z,7.00
2018-03-28T17:26:27.226Z,7.00
2018-03-28T17:28:54.740Z,6.90
2018-03-28T17:31:22.248Z,6.90
2018-03-28T17:33:50.524Z,6.80
2018-03-28T17:36:18.075Z,6.80
2018-03-28T17:38:45.572Z,6.80
2018-03-28T17:41:13.108Z,6.70
2018-03-28T17:43:40.615Z,6.60
2018-03-28T17:46:08.133Z,6.70
2018-03-28T17:48:35.657Z,6.60
2018-03-28T17:51:03.170Z,6.60
2018-03-28T17:53:30.687Z,6.50
2018-03-28T17:55:58.214Z,6.50
2018-03-28T17:58:25.734Z,6.50
2018-03-28T18:00:53.292Z,6.50
2018-03-28T18:03:21.605Z,6.50
2018-03-28T18:05:49.258Z,6.50
2018-03-28T18:08:16.833Z,6.30
2018-03-28T18:10:44.417Z,6.30
2018-03-28T18:13:11.922Z,6.30
2018-03-28T18:15:40.220Z,6.30
2018-03-28T18:18:07.802Z,6.20
2018-03-28T18:20:35.377Z,6.20
2018-03-28T18:23:02.900Z,6.10
2018-03-28T18:25:30.436Z,6.10
2018-03-28T18:27:58.732Z,6.10
2018-03-28T18:30:27.725Z,6.10
2018-03-28T18:32:56.028Z,5.90
2018-03-28T18:35:23.551Z,5.90
2018-03-28T18:37:51.822Z,6.00
2018-03-28T18:40:19.358Z,6.00
2018-03-28T18:42:46.878Z,6.00
2018-03-28T18:45:14.390Z,5.90
2018-03-28T18:47:41.965Z,5.80
2018-03-28T18:50:09.513Z,5.80
2018-03-28T18:52:37.021Z,5.70
2018-03-28T18:55:04.551Z,5.50
2018-03-28T18:57:32.092Z,5.50
2018-03-28T18:59:59.610Z,5.40
2018-03-28T19:02:27.131Z,5.40
2018-03-28T19:04:55.414Z,5.40
2018-03-28T19:07:22.939Z,5.40
2018-03-28T19:09:50.552Z,5.40
2018-03-28T19:12:18.059Z,5.30
2018-03-28T19:14:45.568Z,5.30
2018-03-28T19:17:13.083Z,5.30
2018-03-28T19:19:40.606Z,5.10
2018-03-28T19:22:08.135Z,5.10
2018-03-28T19:24:35.679Z,5.10
2018-03-28T19:27:03.208Z,5.20
2018-03-28T19:29:30.713Z,5.10
2018-03-28T19:31:59.006Z,5.20
2018-03-28T19:34:26.520Z,5.20
2018-03-28T19:36:54.041Z,5.20
2018-03-28T19:39:23.561Z,5.10
2018-03-28T19:41:51.134Z,5.00
2018-03-28T19:44:18.664Z,5.00
2018-03-28T19:46:46.424Z,5.10
2018-03-28T19:49:13.948Z,5.00
2018-03-28T19:51:41.615Z,5.00
2018-03-28T19:54:09.155Z,5.00
2018-03-28T19:56:36.683Z,5.00
2018-03-28T19:59:04.193Z,4.90
2018-03-28T20:01:31.712Z,5.00
2018-03-28T20:03:59.512Z,4.90
2018-03-28T20:06:27.066Z,5.00
2018-03-28T20:08:55.351Z,5.10
2018-03-28T20:11:22.859Z,5.10
2018-03-28T20:13:51.159Z,4.90
2018-03-28T20:16:18.679Z,4.90
2018-03-28T20:18:46.954Z,5.00
2018-03-28T20:21:15.250Z,5.10
2018-03-28T20:23:42.767Z,5.10
2018-03-28T20:26:10.297Z,5.20
2018-03-28T20:28:37.903Z,5.20
2018-03-28T20:31:05.416Z,5.10
2018-03-28T20:33:32.927Z,5.10
2018-03-28T20:36:01.255Z,5.10
2018-03-28T20:38:29.431Z,5.00
2018-03-28T20:40:56.946Z,5.10
2018-03-28T20:43:25.237Z,5.10
2018-03-28T20:45:53.538Z,5.20
2018-03-28T20:48:21.053Z,5.10
2018-03-28T20:50:49.360Z,5.20
2018-03-28T20:53:16.878Z,5.20
2018-03-28T20:55:44.397Z,5.50
2018-03-28T20:58:11.918Z,5.50
2018-03-28T21:00:40.251Z,5.20
2018-03-28T21:03:07.767Z,5.20
2018-03-28T21:05:36.042Z,5.30
2018-03-28T21:08:04.320Z,5.30
2018-03-28T21:10:31.888Z,5.30
2018-03-28T21:13:00.165Z,5.30
2018-03-28T21:15:27.695Z,5.30
2018-03-28T21:17:55.217Z,5.30
2018-03-28T21:20:22.733Z,5.30
2018-03-28T21:22:50.261Z,5.20
2018-03-28T21:25:17.775Z,5.20
2018-03-28T21:27:45.340Z,5.10
2018-03-28T21:30:12.851Z,5.20
2018-03-28T21:32:40.360Z,5.30
2018-03-28T21:35:07.892Z,5.30
2018-03-28T21:37:35.411Z,5.20
2018-03-28T21:40:02.987Z,5.10
2018-03-28T21:42:30.454Z,5.20
2018-03-28T21:44:57.991Z,5.20
2018-03-28T21:47:25.496Z,5.10
2018-03-28T21:49:53.020Z,5.00
2018-03-28T21:52:20.529Z,5.10
2018-03-28T21:54:48.818Z,5.10
2018-03-28T21:57:16.335Z,5.10
2018-03-28T21:59:43.865Z,5.00
2018-03-28T22:02:11.380Z,5.00
2018-03-28T22:04:38.902Z,5.10
2018-03-28T22:07:06.403Z,5.00
2018-03-28T22:09:33.911Z,5.00
2018-03-28T22:12:01.411Z,5.10
2018-03-28T22:14:29.695Z,5.00
2018-03-28T22:16:57.976Z,5.10
2018-03-28T22:19:25.505Z,5.10
2018-03-28T22:21:53.030Z,5.10
2018-03-28T22:24:20.543Z,5.20
2018-03-28T22:26:49.443Z,5.20
2018-03-28T22:29:16.970Z,5.10
2018-03-28T22:31:44.484Z,5.10
2018-03-28T22:34:12.033Z,5.20
2018-03-28T22:36:39.560Z,5.20
2018-03-28T22:39:07.079Z,5.30
2018-03-28T22:41:34.588Z,5.10
2018-03-28T22:44:02.253Z,5.10
2018-03-28T22:46:29.779Z,5.20
2018-03-28T22:48:57.915Z,5.10
2018-03-28T22:51:26.199Z,5.20
2018-03-28T22:53:53.717Z,5.10
2018-03-28T22:56:21.223Z,5.10
2018-03-28T22:58:48.757Z,5.20
2018-03-28T23:01:17.938Z,5.10
2018-03-28T23:03:45.456Z,5.10
2018-03-28T23:06:12.976Z,5.10
2018-03-28T23:08:41.273Z,5.20
2018-03-28T23:11:09.611Z,5.30
2018-03-28T23:13:37.164Z,5.20
2018-03-28T23:16:04.692Z,5.20
2018-03-28T23:18:32.220Z,5.20
2018-03-28T23:20:59.742Z,5.30
2018-03-28T23:23:27.251Z,5.20
2018-03-28T23:25:55.527Z,5.20
2018-03-28T23:28:23.821Z,5.20
2018-03-28T23:30:51.327Z,5.20
2018-03-28T23:33:18.849Z,5.10
2018-03-28T23:35:46.415Z,5.10
2018-03-28T23:38:14.011Z,5.10
2018-03-28T23:40:41.539Z,5.20
2018-03-28T23:43:09.052Z,5.20
2018-03-28T23:45:37.327Z,5.10
2018-03-28T23:48:04.834Z,5.10
2018-03-28T23:50:32.348Z,5.10
2018-03-28T23:53:00.649Z,5.00
2018-03-28T23:55:28.158Z,5.00
2018-03-28T23:57:55.672Z,5.10
